Time;durP1;ratioP1;P1;durP2;ratioP2;P2;SDS_P1;SDS_P2;PMS_P1;PMS_P2;Temp;Humidity;BMP_temperature;BMP_pressure;BME280_temperature;BME280_humidity;BME280_pressure;Samples;Min_cycle;Max_cycle;Signal;HPM_P1;HPM_P2
2021/12/26 00:01:04;;;;;;;5.32;2.40;;;-0.60;99.90;;;-2.54;89.30;100439.97;2568321;30;137303;-40
2021/12/26 00:03:33;;;;;;;4.32;2.30;;;-0.60;99.90;;;-2.49;87.07;100443.94;2566293;30;138249;-40
2021/12/26 00:06:08;;;;;;;5.78;2.63;;;-0.50;99.90;;;-2.52;87.68;100441.56;2567837;30;137077;-40
2021/12/26 00:08:37;;;;;;;5.30;2.85;;;-0.50;99.90;;;-2.47;87.79;100439.31;2567583;30;137534;-40
2021/12/26 00:11:06;;;;;;;5.10;2.47;;;-0.50;99.90;;;-2.50;87.39;100436.09;2566082;30;137189;-40
2021/12/26 00:13:36;;;;;;;4.00;2.20;;;-0.50;99.90;;;-2.42;88.35;100444.25;2566310;30;137445;-40
2021/12/26 00:16:05;;;;;;;4.70;2.30;;;-0.50;99.90;;;-2.48;88.66;100428.78;2565655;30;137136;-40
2021/12/26 00:18:33;;;;;;;4.63;2.30;;;-0.40;99.90;;;-2.41;89.16;100439.72;2567129;30;138997;-40
2021/12/26 00:21:03;;;;;;;5.72;2.58;;;-0.40;99.90;;;-2.39;87.10;100440.44;2568187;30;137488;-40
2021/12/26 00:23:31;;;;;;;5.00;2.38;;;-0.40;99.90;;;-2.46;88.12;100432.97;2567360;30;137899;-40
2021/12/26 00:25:59;;;;;;;5.03;2.58;;;-0.50;99.90;;;-2.40;89.45;100436.06;2567352;30;136795;-40
2021/12/26 00:28:27;;;;;;;5.90;2.33;;;-0.50;99.90;;;-2.38;89.65;100442.16;2567727;30;137729;-41
2021/12/26 00:30:55;;;;;;;4.18;2.38;;;-0.40;99.90;;;-2.35;88.15;100428.53;2568073;30;137395;-40
2021/12/26 00:33:24;;;;;;;5.30;2.47;;;-0.40;99.90;;;-2.32;88.20;100436.25;2568333;30;138189;-40
2021/12/26 00:35:52;;;;;;;5.72;2.65;;;-0.40;99.90;;;-2.37;87.94;100431.31;2567484;30;136807;-40
2021/12/26 00:38:20;;;;;;;4.45;2.40;;;-0.40;99.90;;;-2.34;88.35;100422.19;2568639;30;137324;-40
2021/12/26 00:40:48;;;;;;;5.38;2.38;;;-0.40;99.90;;;-2.31;89.22;100427.25;2567796;30;137621;-40
2021/12/26 00:43:17;;;;;;;5.20;2.55;;;-0.40;99.90;;;-2.28;87.30;100416.28;2567706;30;139861;-40
2021/12/26 00:45:45;;;;;;;6.13;2.72;;;-0.30;99.90;;;-2.36;87.21;100413.47;2567576;30;136976;-40
2021/12/26 00:48:13;;;;;;;4.95;2.42;;;-0.40;99.90;;;-2.31;87.97;100414.72;2566291;30;138450;-40
2021/12/26 00:50:42;;;;;;;7.97;3.05;;;-0.40;99.90;;;-2.30;87.41;100418.25;2568378;30;136954;-40
2021/12/26 00:53:11;;;;;;;4.85;2.55;;;-0.30;99.90;;;-2.31;89.85;100420.06;2565026;30;140757;-40
2021/12/26 00:55:40;;;;;;;4.90;2.72;;;-0.30;99.90;;;-2.31;87.91;100403.19;2567042;30;136931;-40
2021/12/26 00:58:08;;;;;;;5.30;2.60;;;-0.30;99.90;;;-2.31;88.71;100408.53;2567125;30;139216;-40
2021/12/26 01:00:44;;;;;;;4.57;2.28;;;-0.30;99.90;;;-2.35;89.42;100404.47;2569256;30;137714;-40
2021/12/26 01:03:15;;;;;;;5.68;2.63;;;-0.40;99.90;;;-2.36;89.75;100392.91;2566837;30;141011;-41
2021/12/26 01:05:47;;;;;;;5.18;2.60;;;-0.40;99.90;;;-2.45;89.73;100385.75;2567602;30;138926;-40
2021/12/26 01:08:19;;;;;;;5.32;2.35;;;-0.40;99.90;;;-2.38;89.84;100399.41;2567864;30;140242;-40
2021/12/26 01:11:01;;;;;;;6.65;2.83;;;-0.40;99.90;;;-2.36;89.51;100400.09;2566750;30;138122;-40
2021/12/26 01:13:37;;;;;;;5.53;2.55;;;-0.40;99.90;;;-2.39;89.27;100400.34;2567731;30;139372;-40
2021/12/26 01:16:23;;;;;;;6.25;2.80;;;-0.40;99.90;;;-2.38;89.65;100404.75;2566477;30;137229;-40
2021/12/26 01:18:55;;;;;;;7.78;2.80;;;-0.40;99.90;;;-2.51;88.90;100402.34;2567981;30;138236;-40
2021/12/26 01:21:25;;;;;;;4.18;2.40;;;-0.50;99.90;;;-2.57;90.05;100409.06;2567456;30;139575;-40
2021/12/26 01:24:09;;;;;;;5.78;2.80;;;-0.60;99.90;;;-2.63;89.84;100409.63;2565025;30;137735;-40
2021/12/26 01:26:38;;;;;;;4.32;2.50;;;-0.60;99.90;;;-2.68;90.45;100406.47;2567493;30;139912;-40
2021/12/26 01:29:07;;;;;;;5.25;2.58;;;-0.70;99.90;;;-2.71;90.37;100401.41;2568372;30;139293;-41
2021/12/26 01:31:39;;;;;;;6.85;3.10;;;-0.70;99.90;;;-2.78;90.68;100406.47;2567928;30;138520;-40
2021/12/26 01:34:34;;;;;;;4.88;2.60;;;-0.80;99.90;;;-2.87;90.49;100405.47;2566959;30;137120;-40
2021/12/26 01:37:13;;;;;;;5.78;2.90;;;-0.80;99.90;;;-2.95;90.88;100405.28;2568665;30;137517;-40
2021/12/26 01:39:57;;;;;;;3.90;2.65;;;-0.90;99.90;;;-3.03;91.14;100404.13;2567647;30;139309;-40
2021/12/26 01:42:38;;;;;;;6.63;2.67;;;-0.90;99.90;;;-3.00;91.74;100408.38;2567753;30;138992;-40
2021/12/26 01:45:19;;;;;;;4.80;2.70;;;-0.90;99.90;;;-3.04;91.87;100407.78;2567189;30;138134;-40
2021/12/26 01:48:04;;;;;;;5.50;2.88;;;-1.00;99.90;;;-3.06;91.86;100404.41;2568498;30;139258;-40
2021/12/26 01:50:37;;;;;;;5.28;2.70;;;-1.00;99.90;;;-3.08;92.22;100401.03;2566677;30;139694;-40
2021/12/26 01:53:07;;;;;;;6.47;2.60;;;-1.00;99.90;;;-3.15;92.18;100404.34;2567259;30;137880;-40
2021/12/26 01:55:42;;;;;;;5.18;3.00;;;-1.10;99.90;;;-3.25;92.40;100401.63;2566120;30;139710;-40
2021/12/26 01:58:18;;;;;;;6.15;3.08;;;-1.20;99.90;;;-3.34;92.94;100403.25;2568145;30;138879;-41
2021/12/26 02:00:56;;;;;;;4.65;2.55;;;-1.30;99.90;;;-3.45;93.40;100384.69;2568102;30;140567;-40
2021/12/26 02:03:24;;;;;;;5.93;3.00;;;-1.30;99.90;;;-3.35;93.22;100401.56;2567959;30;136838;-40
2021/12/26 02:05:52;;;;;;;7.00;3.03;;;-1.30;99.90;;;-3.33;93.89;100402.28;2569277;30;138339;-41
2021/12/26 02:08:20;;;;;;;5.97;2.63;;;-1.30;99.90;;;-3.30;94.32;100393.19;2566272;30;138460;-41
2021/12/26 02:10:50;;;;;;;6.90;2.70;;;-1.30;99.90;;;-3.29;93.27;100392.19;2569345;30;138090;-40
2021/12/26 02:13:18;;;;;;;6.03;2.90;;;-1.30;99.90;;;-3.35;92.91;100386.44;2567858;30;136762;-40
2021/12/26 02:15:49;;;;;;;5.75;2.75;;;-1.30;99.90;;;-3.27;93.28;100382.25;2565932;30;138428;-40
2021/12/26 02:18:20;;;;;;;6.38;2.97;;;-1.30;99.90;;;-3.32;93.44;100377.28;2568978;30;137579;-40
2021/12/26 02:23:27;;;;;;;6.15;2.80;;;-1.30;99.90;;;-3.36;92.42;100378.53;2567420;30;137358;-40
2021/12/26 02:28:28;;;;;;;6.97;2.67;;;-1.30;99.90;;;-3.37;93.61;100384.84;2566533;30;136727;-41
2021/12/26 02:30:58;;;;;;;6.43;2.95;;;-1.40;99.90;;;-3.32;94.37;100377.28;2566792;30;140021;-40
2021/12/26 02:33:26;;;;;;;6.53;2.78;;;-1.30;99.90;;;-3.33;93.74;100376.47;2566540;30;139824;-40
2021/12/26 02:35:54;;;;;;;5.75;3.05;;;-1.30;99.90;;;-3.23;94.00;100379.19;2567715;30;139862;-41
2021/12/26 02:38:22;;;;;;;6.10;2.67;;;-1.30;99.90;;;-3.17;93.20;100372.47;2567182;30;138867;-40
2021/12/26 02:40:55;;;;;;;5.00;2.80;;;-1.20;99.90;;;-3.03;92.30;100368.59;2568163;30;139398;-40
2021/12/26 02:43:27;;;;;;;6.13;3.13;;;-1.10;99.90;;;-2.96;93.03;100363.53;2567433;30;137025;-40
2021/12/26 02:45:55;;;;;;;5.03;2.72;;;-1.00;99.90;;;-2.98;92.73;100365.50;2568331;30;139860;-40
2021/12/26 02:48:23;;;;;;;5.20;2.92;;;-1.00;99.90;;;-2.95;93.48;100365.22;2566041;30;137318;-40
2021/12/26 02:50:56;;;;;;;6.60;3.25;;;-1.00;99.90;;;-2.79;93.32;100362.03;2567979;30;140598;-40
2021/12/26 02:53:27;;;;;;;9.32;3.40;;;-0.90;99.90;;;-2.85;92.06;100365.25;2567424;30;138789;-40
2021/12/26 02:55:58;;;;;;;6.50;2.88;;;-0.90;99.90;;;-2.86;92.09;100368.91;2565387;30;141065;-40
2021/12/26 02:58:27;;;;;;;5.80;2.55;;;-0.90;99.90;;;-2.79;92.45;100370.03;2567867;30;140008;-40
2021/12/26 03:01:20;;;;;;;6.03;2.67;;;-0.90;99.90;;;-2.85;91.90;100371.47;2568083;30;137303;-40
2021/12/26 03:03:48;;;;;;;4.97;2.70;;;-0.90;99.90;;;-2.81;91.82;100377.34;2565633;30;138303;-40
2021/12/26 03:09:12;;;;;;;4.32;2.50;;;-0.80;99.90;;;-2.62;92.50;100369.41;2568223;30;138136;-40
2021/12/26 03:11:44;;;;;;;6.95;3.38;;;-0.70;99.90;;;-2.68;91.50;100371.75;2567520;30;138325;-40
2021/12/26 03:14:11;;;;;;;7.47;3.15;;;-0.70;99.90;;;-2.77;91.17;100365.44;2568399;30;138303;-41
2021/12/26 03:16:50;;;;;;;6.20;2.95;;;-0.80;99.90;;;-2.72;92.21;100378.38;2569760;30;139021;-37
2021/12/26 03:19:18;;;;;;;6.57;3.03;;;-0.80;99.90;;;-2.71;92.72;100380.91;2565133;30;139348;-38
2021/12/26 03:21:51;;;;;;;5.35;2.75;;;-0.80;99.90;;;-2.67;93.50;100376.97;2567616;30;138172;-38
2021/12/26 03:24:18;;;;;;;4.80;2.45;;;-0.70;99.90;;;-2.65;93.54;100380.34;2567810;30;138137;-37
2021/12/26 03:26:46;;;;;;;7.72;3.15;;;-0.70;99.90;;;-2.62;92.58;100374.72;2567303;30;138237;-38
2021/12/26 03:29:13;;;;;;;6.28;3.10;;;-0.70;99.90;;;-2.59;92.83;100373.63;2567276;30;137601;-38
2021/12/26 03:31:42;;;;;;;;;;;-0.60;99.90;;;-2.51;93.46;100380.97;2568778;30;139608;-38
2021/12/26 03:34:09;;;;;;;6.00;2.75;;;-0.60;99.90;;;-2.51;93.15;100378.28;2565853;30;137004;-38
2021/12/26 03:36:38;;;;;;;5.63;2.63;;;-0.60;99.90;;;-2.40;92.21;100377.28;2567620;30;139026;-38
2021/12/26 03:39:06;;;;;;;5.55;2.67;;;-0.50;99.90;;;-2.41;91.81;100380.94;2566429;30;138891;-38
2021/12/26 03:41:33;;;;;;;6.38;3.00;;;-0.50;99.90;;;-2.39;91.48;100378.97;2568345;30;137910;-38
2021/12/26 03:44:03;;;;;;;6.03;2.92;;;-0.50;99.90;;;-2.47;91.88;100366.34;2567616;30;139465;-38
2021/12/26 03:46:31;;;;;;;7.78;3.00;;;-0.50;99.90;;;-2.38;93.03;100370.00;2566491;30;140223;-38
2021/12/26 03:49:01;;;;;;;5.47;2.95;;;-0.50;99.90;;;-2.37;93.77;100371.69;2567062;30;138250;-38
2021/12/26 03:51:29;;;;;;;5.28;2.92;;;-0.50;99.90;;;-2.29;92.52;100369.16;2566434;30;137395;-38
2021/12/26 03:53:57;;;;;;;;;;;-0.40;99.90;;;-2.27;91.51;100366.34;2566556;30;136840;-38
2021/12/26 03:56:24;;;;;;;8.57;2.88;;;-0.40;99.90;;;-2.27;91.56;100366.34;2568663;30;138597;-38
2021/12/26 03:59:04;;;;;;;6.82;3.00;;;-0.40;99.90;;;-2.25;92.76;100359.88;2567968;30;138428;-38
2021/12/26 04:01:32;;;;;;;6.68;2.65;;;-0.30;99.90;;;-2.28;92.08;100365.50;2568010;30;137114;-38
2021/12/26 04:04:01;;;;;;;5.60;2.75;;;-0.40;99.90;;;-2.27;92.57;100359.19;2567712;30;138902;-38
2021/12/26 04:06:29;;;;;;;4.63;2.80;;;-0.40;99.90;;;-2.33;93.69;100346.38;2565445;30;137479;-38
2021/12/26 04:08:57;;;;;;;5.38;2.92;;;-0.40;99.90;;;-2.26;93.91;100347.50;2567417;30;137287;-38
2021/12/26 04:11:26;;;;;;;5.53;2.92;;;-0.30;99.90;;;-2.29;93.82;100347.78;2565783;30;138618;-38
2021/12/26 04:13:53;;;;;;;6.63;3.03;;;-0.40;99.90;;;-2.18;93.86;100342.28;2565918;30;137971;-38
2021/12/26 04:16:21;;;;;;;6.40;3.08;;;-0.20;99.90;;;-2.10;93.58;100341.59;2567607;30;138590;-38
2021/12/26 04:18:48;;;;;;;7.18;3.08;;;-0.20;99.90;;;-2.13;92.80;100341.00;2566288;30;139820;-38
2021/12/26 04:21:16;;;;;;;8.30;3.63;;;-0.20;99.90;;;-2.09;93.64;100342.44;2567118;30;140334;-38
2021/12/26 04:23:54;;;;;;;;;;;-0.20;99.90;;;-2.06;92.98;100342.16;2567653;30;139367;-38
2021/12/26 04:26:22;;;;;;;6.00;2.83;;;-0.20;99.90;;;-2.10;93.08;100346.94;2567283;30;137018;-38
2021/12/26 04:28:50;;;;;;;5.30;2.88;;;-0.20;99.90;;;-2.10;94.38;100348.78;2564911;30;138649;-38
2021/12/26 04:31:19;;;;;;;5.63;3.20;;;-0.20;99.90;;;-2.04;93.81;100348.19;2567597;30;139592;-38
2021/12/26 04:33:49;;;;;;;5.63;2.78;;;-0.20;99.90;;;-2.06;94.59;100348.31;2565553;30;137403;-38
2021/12/26 04:36:20;;;;;;;6.93;3.08;;;-0.20;99.90;;;-2.10;94.99;100351.44;2567294;30;140530;-38
2021/12/26 04:38:48;;;;;;;6.25;3.25;;;-0.20;99.90;;;-2.05;95.24;100350.00;2568244;30;138796;-38
2021/12/26 04:41:16;;;;;;;6.05;3.13;;;-0.10;99.90;;;-2.10;94.80;100343.44;2568272;30;139778;-36
2021/12/26 04:43:46;;;;;;;7.43;2.97;;;-0.20;99.90;;;-2.10;94.77;100351.44;2568246;30;137924;-36
2021/12/26 04:46:28;;;;;;;7.82;3.17;;;-0.10;99.90;;;-2.07;95.31;100335.94;2566884;30;139340;-38
2021/12/26 04:49:01;;;;;;;6.20;3.03;;;-0.20;99.90;;;-2.03;94.22;100341.88;2567677;30;137477;-38
2021/12/26 04:51:29;;;;;;;6.35;3.10;;;-0.10;99.90;;;-2.03;94.31;100337.34;2567730;30;137656;-38
2021/12/26 04:54:02;;;;;;;6.95;3.53;;;-0.10;99.90;;;-2.02;94.21;100339.03;2567746;30;137482;-38
2021/12/26 04:56:30;;;;;;;5.45;3.00;;;-0.10;99.90;;;-2.04;94.64;100340.19;2567214;30;139595;-38
2021/12/26 04:58:57;;;;;;;6.72;3.30;;;-0.10;99.90;;;-1.98;94.81;100333.44;2566002;30;139199;-38
2021/12/26 05:01:26;;;;;;;6.47;3.35;;;-0.10;99.90;;;-1.99;93.81;100327.22;2567556;30;140674;-38
2021/12/26 05:03:54;;;;;;;5.53;3.05;;;-0.10;99.90;;;-2.08;93.89;100331.59;2568469;30;136944;-38
2021/12/26 05:06:27;;;;;;;4.50;2.75;;;-0.10;99.90;;;-2.18;94.50;100328.09;2568513;30;139101;-38
2021/12/26 05:08:54;;;;;;;5.78;2.90;;;-0.20;99.90;;;-2.25;95.24;100324.31;2568821;30;137181;-38
2021/12/26 05:11:22;;;;;;;;;;;-0.30;99.90;;;-2.26;94.26;100318.09;2568356;30;138121;-38
2021/12/26 05:13:49;;;;;;;5.43;2.78;;;-0.30;99.90;;;-2.37;94.77;100319.09;2567458;30;137966;-36
2021/12/26 05:16:17;;;;;;;5.88;2.95;;;-0.40;99.90;;;-2.47;95.22;100318.25;2566748;30;138130;-38
2021/12/26 05:18:44;;;;;;;5.95;2.90;;;-0.50;99.90;;;-2.54;95.26;100322.44;2565867;30;139758;-38
2021/12/26 05:21:12;;;;;;;6.32;2.92;;;-0.50;99.90;;;-2.68;95.75;100315.66;2567338;30;139824;-38
2021/12/26 05:23:39;;;;;;;7.70;3.20;;;-0.60;99.90;;;-2.63;96.42;100318.78;2564014;30;139121;-38
2021/12/26 05:26:07;;;;;;;5.25;3.10;;;-0.60;99.90;;;-2.72;96.31;100325.81;2566965;30;138292;-38
2021/12/26 05:28:35;;;;;;;5.53;3.05;;;-0.70;99.90;;;-2.81;96.84;100330.16;2567039;30;139924;-38
2021/12/26 05:31:05;;;;;;;5.40;3.03;;;-0.80;99.90;;;-2.80;96.99;100320.28;2566818;30;140114;-38
2021/12/26 05:33:51;;;;;;;6.38;3.20;;;-0.80;99.90;;;-2.85;97.44;100318.06;2567591;30;138572;-38
2021/12/26 05:36:18;;;;;;;6.57;3.40;;;-0.80;99.90;;;-2.86;98.19;100323.53;2567671;30;139033;-38
2021/12/26 05:38:48;;;;;;;5.82;2.78;;;-0.80;99.90;;;-2.75;98.59;100320.75;2568420;30;136806;-38
2021/12/26 05:41:16;;;;;;;9.45;3.35;;;-0.80;99.90;;;-2.73;98.34;100316.09;2566950;30;137352;-38
2021/12/26 05:43:59;;;;;;;6.43;3.20;;;-0.80;99.90;;;-2.79;98.28;100320.16;2567374;30;138293;-38
2021/12/26 05:46:27;;;;;;;5.28;2.85;;;-0.80;99.90;;;-2.79;97.64;100330.00;2566976;30;139809;-38
2021/12/26 05:48:55;;;;;;;;;;;-0.80;99.90;;;-2.79;97.90;100330.00;2565540;30;138815;-38
2021/12/26 05:51:43;;;;;;;5.57;3.20;;;-0.80;99.90;;;-2.77;98.17;100326.22;2566881;30;137347;-38
2021/12/26 05:54:27;;;;;;;5.35;3.17;;;-0.80;99.90;;;-2.66;98.92;100324.38;2567732;30;137227;-38
2021/12/26 05:56:55;;;;;;;7.15;3.42;;;-0.70;99.90;;;-2.67;98.70;100317.34;2567714;30;138577;-38
2021/12/26 05:59:22;;;;;;;6.65;3.15;;;-0.70;99.90;;;-2.62;99.06;100317.81;2568270;30;139834;-38
2021/12/26 06:01:50;;;;;;;6.18;3.40;;;-0.70;99.90;;;-2.60;98.90;100315.84;2567897;30;139564;-38
2021/12/26 06:04:18;;;;;;;6.15;2.97;;;-0.70;99.90;;;-2.48;98.28;100316.56;2567466;30;139122;-37
2021/12/26 06:06:45;;;;;;;5.63;3.35;;;-0.60;99.90;;;-2.39;96.82;100322.88;2568065;30;139236;-38
2021/12/26 06:09:15;;;;;;;6.13;3.30;;;-0.50;99.90;;;-2.30;98.16;100306.00;2567612;30;139753;-38
2021/12/26 06:11:44;;;;;;;7.22;3.13;;;-0.40;99.90;;;-2.26;96.61;100315.41;2567048;30;140292;-38
2021/12/26 06:14:14;;;;;;;5.68;3.15;;;-0.40;99.90;;;-2.30;97.27;100319.38;2566402;30;138418;-38
2021/12/26 06:16:42;;;;;;;6.38;3.47;;;-0.40;99.90;;;-2.35;97.46;100316.28;2567267;30;142505;-38
2021/12/26 06:19:25;;;;;;;6.70;3.38;;;-0.40;99.90;;;-2.18;96.22;100318.22;2567813;30;139592;-38
2021/12/26 06:22:11;;;;;;;6.63;3.13;;;-0.30;99.90;;;-2.23;94.83;100319.66;2568412;30;136962;-38
2021/12/26 06:25:17;;;;;;;5.82;2.78;;;-0.30;99.90;;;-2.23;94.43;100320.47;2566871;30;137838;-38
2021/12/26 06:28:00;;;;;;;5.80;2.95;;;-0.30;99.90;;;-2.28;95.43;100314.72;2566181;30;138578;-38
2021/12/26 06:30:35;;;;;;;5.68;2.72;;;-0.30;99.90;;;-2.24;96.54;100312.63;2568273;30;137480;-38
2021/12/26 06:33:39;;;;;;;6.07;3.30;;;-0.30;99.90;;;-2.27;95.95;100323.56;2566217;30;137558;-38
2021/12/26 06:36:26;;;;;;;6.13;3.22;;;-0.40;99.90;;;-2.31;96.77;100312.34;2567571;30;136979;-38
2021/12/26 06:39:12;;;;;;;7.30;3.20;;;-0.40;99.90;;;-2.15;97.35;100318.91;2565350;30;136896;-38
2021/12/26 06:41:58;;;;;;;7.00;3.75;;;-0.30;99.90;;;-2.20;97.17;100314.84;2568982;30;136828;-38
2021/12/26 06:44:44;;;;;;;7.80;3.78;;;-0.30;99.90;;;-2.13;97.57;100300.91;2568838;30;136894;-38
2021/12/26 06:47:36;;;;;;;6.72;3.38;;;-0.20;99.90;;;-2.15;97.50;100305.56;2566715;30;137099;-37
2021/12/26 06:50:06;;;;;;;5.72;3.05;;;-0.30;99.90;;;-2.15;97.82;100313.56;2568321;30;139091;-38
2021/12/26 06:52:34;;;;;;;6.00;3.80;;;-0.30;99.90;;;-2.03;95.34;100296.41;2566760;30;139368;-38
2021/12/26 06:55:01;;;;;;;5.88;3.40;;;-0.10;99.90;;;-2.09;95.47;100305.00;2566261;30;138172;-37
2021/12/26 06:57:29;;;;;;;6.05;3.03;;;-0.20;99.90;;;-2.06;95.81;100308.22;2568326;30;138080;-37
2021/12/26 06:59:56;;;;;;;6.05;3.22;;;-0.10;99.90;;;-2.04;96.07;100292.88;2566888;30;138178;-38
2021/12/26 07:02:24;;;;;;;6.55;3.30;;;-0.10;99.90;;;-1.97;94.97;100293.16;2567702;30;139622;-38
2021/12/26 07:04:56;;;;;;;7.18;3.13;;;-0.10;99.90;;;-1.95;95.35;100298.38;2567002;30;140562;-38
2021/12/26 07:07:31;;;;;;;6.72;3.40;;;-0.10;99.90;;;-1.98;93.99;100301.34;2567973;30;137541;-37
2021/12/26 07:10:00;;;;;;;6.18;3.60;;;0.00;99.90;;;-1.99;95.66;100299.63;2567702;30;139251;-38
2021/12/26 07:12:28;;;;;;;5.90;3.05;;;-0.10;99.90;;;-1.99;96.01;100308.50;2566822;30;140005;-37
2021/12/26 07:15:22;;;;;;;6.45;3.40;;;-0.10;99.90;;;-2.04;96.39;100308.09;2565917;30;140337;-37
2021/12/26 07:17:56;;;;;;;7.25;3.65;;;-0.10;99.90;;;-1.97;97.45;100301.19;2568363;30;139729;-38
2021/12/26 07:20:25;;;;;;;5.80;3.42;;;-0.10;99.90;;;-1.98;97.29;100310.19;2568393;30;139220;-38
2021/12/26 07:23:10;;;;;;;8.00;3.58;;;-0.10;99.90;;;-1.98;96.65;100318.22;2568255;30;136751;-38
2021/12/26 07:25:41;;;;;;;5.68;3.15;;;-0.10;99.90;;;-2.05;96.82;100322.44;2566185;30;139190;-37
2021/12/26 07:28:09;;;;;;;7.10;3.55;;;-0.10;99.90;;;-1.91;97.09;100313.97;2567815;30;138430;-38
2021/12/26 07:30:55;;;;;;;6.50;3.55;;;0.00;99.90;;;-1.89;97.66;100312.00;2568760;30;136831;-37
2021/12/26 07:33:23;;;;;;;8.20;3.75;;;0.00;99.90;;;-1.89;98.45;100316.50;2567039;30;138717;-38
2021/12/26 07:35:55;;;;;;;8.05;3.80;;;0.00;99.90;;;-1.91;97.82;100332.69;2563495;30;140185;-38
2021/12/26 07:38:36;;;;;;;6.90;3.53;;;0.00;99.90;;;-1.95;98.17;100323.28;2568886;30;138766;-38
2021/12/26 07:41:23;;;;;;;8.48;3.55;;;0.00;99.90;;;-1.76;100.00;100309.00;2567045;30;139515;-38
2021/12/26 07:43:52;;;;;;;7.50;3.90;;;0.10;99.90;;;-1.75;100.00;100312.53;2568737;30;138464;-37
2021/12/26 07:46:31;;;;;;;8.32;4.10;;;0.10;99.90;;;-1.71;99.60;100331.84;2567657;30;137070;-37
2021/12/26 07:49:03;;;;;;;7.03;4.30;;;0.10;99.90;;;-1.78;99.63;100328.88;2568492;30;138425;-38
2021/12/26 07:51:51;;;;;;;7.30;4.03;;;0.10;99.90;;;-1.70;100.00;100315.63;2567493;30;137361;-38
2021/12/26 07:54:43;;;;;;;9.30;5.15;;;0.20;99.90;;;-1.40;100.00;100308.34;2565346;30;136958;-38
2021/12/26 07:57:29;;;;;;;10.35;5.32;;;0.40;99.90;;;-1.20;100.00;100310.94;2566673;30;138047;-38
2021/12/26 08:00:18;;;;;;;11.63;5.68;;;0.60;99.90;;;-1.18;100.00;100323.19;2566517;30;136919;-38
2021/12/26 08:02:56;;;;;;;11.20;5.28;;;0.60;99.90;;;-1.07;100.00;100319.44;2568339;30;137740;-38
2021/12/26 08:05:56;;;;;;;10.85;5.75;;;0.70;99.90;;;-0.87;100.00;100312.19;2566395;30;137236;-37
2021/12/26 08:08:42;;;;;;;11.13;5.35;;;0.90;99.90;;;-0.78;100.00;100305.06;2567989;30;139567;-37
2021/12/26 08:11:11;;;;;;;10.65;5.03;;;1.00;99.90;;;-0.59;100.00;100292.50;2568073;30;137670;-38
2021/12/26 08:13:39;;;;;;;;;;;1.20;99.90;;;-0.57;99.60;100285.16;2569596;30;138529;-37
2021/12/26 08:16:07;;;;;;;10.75;5.07;;;1.20;99.90;;;-0.50;99.31;100301.47;2568692;30;137872;-37
2021/12/26 08:18:35;;;;;;;9.40;5.15;;;1.30;99.90;;;-0.51;98.94;100316.75;2568719;30;137741;-37
2021/12/26 08:21:03;;;;;;;10.18;5.53;;;1.30;99.90;;;-0.40;98.50;100301.41;2569252;30;137696;-37
2021/12/26 08:23:31;;;;;;;12.02;5.35;;;1.40;99.90;;;-0.38;98.62;100291.38;2567731;30;138206;-37
2021/12/26 08:25:59;;;;;;;9.52;5.93;;;1.40;99.90;;;-0.32;98.45;100296.13;2568409;30;137748;-38
2021/12/26 08:28:27;;;;;;;11.15;5.75;;;1.50;99.90;;;-0.36;98.42;100300.09;2568582;30;137492;-38
2021/12/26 08:30:55;;;;;;;11.00;5.65;;;1.50;99.90;;;-0.31;99.03;100305.84;2568525;30;138290;-38
2021/12/26 08:33:23;;;;;;;10.82;6.07;;;1.50;99.90;;;-0.20;97.99;100300.25;2569118;30;136951;-38
2021/12/26 08:35:51;;;;;;;10.63;5.32;;;1.60;99.90;;;-0.11;97.47;100300.31;2565121;30;139917;-38
2021/12/26 08:38:22;;;;;;;11.40;5.90;;;1.70;99.90;;;-0.12;97.62;100304.84;2568258;30;138579;-38
2021/12/26 08:40:52;;;;;;;10.82;6.53;;;1.70;99.90;;;-0.08;97.04;100321.44;2569083;30;137473;-38
2021/12/26 08:43:20;;;;;;;9.65;5.20;;;1.70;99.90;;;-0.04;97.34;100309.41;2567024;30;137882;-37
2021/12/26 08:45:49;;;;;;;12.07;6.40;;;1.80;99.90;;;0.03;97.24;100302.44;2568612;30;137769;-38
2021/12/26 08:48:17;;;;;;;10.23;5.47;;;1.80;99.90;;;0.08;96.30;100308.19;2569186;30;138340;-38
2021/12/26 08:50:45;;;;;;;;;;;1.90;99.90;;;0.12;96.94;100306.00;2568147;30;136646;-38
2021/12/26 08:53:13;;;;;;;10.55;5.28;;;1.90;99.90;;;0.16;96.91;100302.03;2566835;30;137115;-38
2021/12/26 08:55:41;;;;;;;10.32;5.18;;;1.90;99.90;;;0.25;96.06;100303.75;2568503;30;137780;-38
2021/12/26 08:58:09;;;;;;;;;;;2.00;99.90;;;0.28;95.88;100305.31;2568412;30;137115;-38
2021/12/26 09:00:37;;;;;;;11.50;5.75;;;2.10;99.90;;;0.28;96.59;100311.50;2567711;30;136619;-37
2021/12/26 09:03:05;;;;;;;12.18;5.80;;;2.10;99.90;;;0.34;96.38;100301.97;2566916;30;137724;-38
2021/12/26 09:05:33;;;;;;;9.60;5.28;;;2.10;99.90;;;0.38;96.29;100292.59;2569976;30;137055;-38
2021/12/26 09:08:06;;;;;;;10.20;5.55;;;2.20;99.90;;;0.46;95.85;100305.25;2567852;30;138351;-38
2021/12/26 09:10:34;;;;;;;10.85;5.72;;;2.20;99.90;;;0.51;95.76;100310.09;2568746;30;137493;-38
2021/12/26 09:13:02;;;;;;;;;;;2.20;99.90;;;0.50;95.96;100311.13;2568024;30;138186;-38
2021/12/26 09:15:30;;;;;;;9.38;5.38;;;2.30;99.90;;;0.49;95.63;100315.66;2566196;30;137412;-38
2021/12/26 09:17:58;;;;;;;;;;;2.30;99.90;;;0.46;95.79;100305.25;2569992;30;138309;-40
2021/12/26 09:20:27;;;;;;;9.93;5.77;;;2.30;99.90;;;0.57;95.73;100310.31;2569184;30;136930;-41
2021/12/26 09:22:55;;;;;;;10.60;5.93;;;2.30;99.90;;;0.53;95.38;100303.59;2568602;30;138374;-40
2021/12/26 09:25:25;;;;;;;10.65;6.10;;;2.30;99.90;;;0.62;95.35;100317.06;2568816;30;137526;-40
2021/12/26 09:27:54;;;;;;;10.73;5.90;;;2.40;99.90;;;0.64;94.96;100318.59;2568802;30;138500;-40
2021/12/26 09:30:23;;;;;;;10.93;5.68;;;2.40;99.90;;;0.64;95.33;100315.91;2568446;30;136904;-40
2021/12/26 09:32:50;;;;;;;11.73;5.60;;;2.40;99.90;;;0.65;95.66;100327.47;2565836;30;137133;-40
2021/12/26 09:35:18;;;;;;;;;;;2.40;99.90;;;0.70;95.04;100320.63;2569531;30;136773;-40
2021/12/26 09:37:46;;;;;;;11.82;6.03;;;2.40;99.90;;;0.78;94.38;100321.66;2567487;30;137519;-40
2021/12/26 09:40:16;;;;;;;9.63;5.30;;;2.50;99.90;;;0.81;94.33;100319.50;2567947;30;137590;-40
2021/12/26 09:42:46;;;;;;;10.50;5.80;;;2.60;99.90;;;0.90;95.03;100317.69;2568596;30;138204;-40
2021/12/26 09:45:16;;;;;;;11.43;6.25;;;2.60;99.90;;;0.95;95.48;100307.31;2566768;30;137423;-40
2021/12/26 09:47:45;;;;;;;9.98;5.70;;;2.70;99.90;;;1.00;95.77;100309.50;2567677;30;138140;-40
2021/12/26 09:50:14;;;;;;;12.90;6.72;;;2.70;99.90;;;1.10;95.21;100306.69;2568676;30;137661;-40
2021/12/26 09:52:44;;;;;;;12.20;6.43;;;2.80;99.90;;;1.21;93.75;100298.31;2569467;30;137334;-40
2021/12/26 09:55:13;;;;;;;10.18;6.10;;;2.90;99.90;;;1.26;93.13;100301.34;2568151;30;138498;-40
2021/12/26 09:57:42;;;;;;;10.35;5.78;;;3.00;99.90;;;1.34;93.58;100302.41;2567809;30;138289;-40
2021/12/26 10:00:30;;;;;;;11.00;5.93;;;3.10;99.90;;;1.41;93.50;100303.41;2567794;30;137504;-40
2021/12/26 10:03:13;;;;;;;11.03;6.37;;;3.10;99.90;;;1.58;91.95;100302.41;2568307;30;138460;-40
2021/12/26 10:06:00;;;;;;;12.40;6.30;;;3.30;99.90;;;1.66;91.83;100304.28;2568175;30;136967;-40
2021/12/26 10:08:31;;;;;;;10.20;5.55;;;3.30;99.90;;;1.75;93.23;100304.31;2567329;30;138192;-40
2021/12/26 10:11:14;;;;;;;10.95;6.20;;;3.40;99.90;;;1.84;91.47;100295.22;2568034;30;137465;-40
2021/12/26 10:13:47;;;;;;;11.15;5.75;;;3.50;99.90;;;1.86;90.96;100299.44;2566918;30;138149;-40
2021/12/26 10:16:18;;;;;;;10.63;6.05;;;3.60;99.90;;;1.89;90.81;100300.09;2567530;30;138189;-40
2021/12/26 10:18:48;;;;;;;10.95;5.65;;;3.60;99.90;;;1.86;90.99;100302.13;2568125;30;138145;-40
2021/12/26 10:21:34;;;;;;;12.93;6.60;;;3.60;99.90;;;1.84;90.67;100295.22;2566377;30;136900;-40
2021/12/26 10:24:39;;;;;;;10.63;5.70;;;3.60;99.90;;;1.79;90.48;100286.81;2567318;30;138535;-40
2021/12/26 10:27:20;;;;;;;10.55;5.80;;;3.60;99.90;;;1.75;91.47;100286.28;2568426;30;136929;-40
2021/12/26 10:29:52;;;;;;;12.18;6.57;;;3.50;99.90;;;1.76;91.27;100279.09;2568060;30;137300;-40
2021/12/26 10:32:43;;;;;;;11.60;6.10;;;3.50;99.90;;;1.78;91.76;100279.75;2568040;30;138310;-40
2021/12/26 10:35:15;;;;;;;12.15;6.20;;;3.50;99.90;;;1.84;94.03;100279.06;2564680;30;138353;-40
2021/12/26 10:37:52;;;;;;;11.07;6.68;;;3.50;99.90;;;1.96;92.70;100277.72;2566940;30;138715;-40
2021/12/26 10:40:31;;;;;;;12.27;6.40;;;3.60;99.90;;;2.05;92.82;100262.41;2568138;30;138342;-40